Time;durP1;ratioP1;P1;durP2;ratioP2;P2;SDS_P1;SDS_P2;PMS_P1;PMS_P2;Temp;Humidity;BMP_temperature;BMP_pressure;BME280_temperature;BME280_humidity;BME280_pressure;Samples;Min_cycle;Max_cycle;Signal;HPM_P1;HPM_P2
2023/11/14 00:02:11;;;;;;;7.13;5.38;;;;;;;;;;4996897;28;20022;-64
2023/11/14 00:04:37;;;;;;;8.18;5.10;;;;;;;;;;5014149;28;20034;-64
2023/11/14 00:07:03;;;;;;;6.28;5.15;;;;;;;;;;4996128;28;20073;-65
2023/11/14 00:09:29;;;;;;;5.75;5.05;;;;;;;;;;5014110;28;20057;-64
2023/11/14 00:11:55;;;;;;;6.35;5.05;;;;;;;;;;5013834;28;20034;-64
2023/11/14 00:14:21;;;;;;;6.28;5.05;;;;;;;;;;5013766;28;20033;-64
2023/11/14 00:16:47;;;;;;;9.07;5.20;;;;;;;;;;4996136;28;20034;-64
2023/11/14 00:19:12;;;;;;;7.93;5.80;;;;;;;;;;4996034;28;20133;-64
2023/11/14 00:21:39;;;;;;;5.70;4.88;;;;;;;;;;5013701;28;20022;-64
2023/11/14 00:24:04;;;;;;;5.35;4.22;;;;;;;;;;5013981;28;20076;-64
2023/11/14 00:26:30;;;;;;;4.47;3.83;;;;;;;;;;5013784;28;20434;-64
2023/11/14 00:28:55;;;;;;;3.83;3.50;;;;;;;;;;5014210;28;20101;-64
2023/11/14 00:31:21;;;;;;;4.10;3.72;;;;;;;;;;4996012;28;20029;-65
2023/11/14 00:33:46;;;;;;;4.95;3.90;;;;;;;;;;4996589;28;20022;-65
2023/11/14 00:36:11;;;;;;;4.50;4.10;;;;;;;;;;5013829;28;20033;-65
2023/11/14 00:38:37;;;;;;;4.18;3.78;;;;;;;;;;5014120;28;20184;-65
2023/11/14 00:41:03;;;;;;;4.70;3.63;;;;;;;;;;5013462;28;20034;-65
2023/11/14 00:43:28;;;;;;;5.00;3.75;;;;;;;;;;4979871;28;20029;-64
2023/11/14 00:45:54;;;;;;;4.60;3.97;;;;;;;;;;5013784;28;20056;-64
2023/11/14 00:48:19;;;;;;;4.80;3.40;;;;;;;;;;5013720;28;20172;-64
2023/11/14 00:50:45;;;;;;;4.00;3.45;;;;;;;;;;5013994;28;20064;-66
2023/11/14 00:53:10;;;;;;;4.95;3.42;;;;;;;;;;4979688;28;20144;-66
2023/11/14 00:55:36;;;;;;;3.63;3.30;;;;;;;;;;5015027;28;20448;-66
2023/11/14 00:58:02;;;;;;;3.97;3.58;;;;;;;;;;5015879;28;20034;-65
2023/11/14 01:00:27;;;;;;;4.47;3.15;;;;;;;;;;4983274;28;20037;-65
2023/11/14 01:02:54;;;;;;;4.53;3.92;;;;;;;;;;5017349;28;20024;-64
2023/11/14 01:05:20;;;;;;;4.65;4.18;;;;;;;;;;5017572;28;20026;-64
2023/11/14 01:07:46;;;;;;;3.90;3.53;;;;;;;;;;4983312;28;20026;-64
2023/11/14 01:10:14;;;;;;;4.70;3.50;;;;;;;;;;5016928;28;20030;-64
2023/11/14 01:12:39;;;;;;;3.60;3.28;;;;;;;;;;4999982;28;20422;-65
2023/11/14 01:15:05;;;;;;;3.85;3.40;;;;;;;;;;5016826;28;20061;-65
2023/11/14 01:17:30;;;;;;;4.13;3.53;;;;;;;;;;5017073;28;20167;-65
2023/11/14 01:19:56;;;;;;;3.47;3.08;;;;;;;;;;4999104;28;20034;-65
2023/11/14 01:22:21;;;;;;;3.47;3.17;;;;;;;;;;4983473;28;20053;-65
2023/11/14 01:24:47;;;;;;;3.72;3.42;;;;;;;;;;5016684;28;20538;-65
2023/11/14 01:27:12;;;;;;;3.85;3.50;;;;;;;;;;4998867;28;20573;-65
2023/11/14 01:29:38;;;;;;;3.88;3.42;;;;;;;;;;4999005;28;20088;-65
2023/11/14 01:32:04;;;;;;;3.53;2.88;;;;;;;;;;4999266;28;20030;-65
2023/11/14 01:34:29;;;;;;;2.63;2.42;;;;;;;;;;4998951;28;20367;-65
2023/11/14 01:36:56;;;;;;;2.97;2.40;;;;;;;;;;4998839;28;20470;-65
2023/11/14 01:39:22;;;;;;;2.50;2.30;;;;;;;;;;5016825;28;20121;-65
2023/11/14 01:41:47;;;;;;;2.80;2.33;;;;;;;;;;4998721;28;20145;-65
2023/11/14 01:44:13;;;;;;;2.70;2.50;;;;;;;;;;4998729;28;20076;-64
2023/11/14 01:46:38;;;;;;;2.58;2.38;;;;;;;;;;5016783;28;20030;-64
2023/11/14 01:49:04;;;;;;;2.45;2.25;;;;;;;;;;5016155;28;20045;-64
2023/11/14 01:51:29;;;;;;;2.83;2.50;;;;;;;;;;4998592;28;20042;-64
2023/11/14 01:53:55;;;;;;;2.88;2.67;;;;;;;;;;5031336;28;20459;-64
2023/11/14 01:56:21;;;;;;;3.20;2.78;;;;;;;;;;5016070;28;20038;-64
2023/11/14 01:58:46;;;;;;;2.72;2.42;;;;;;;;;;4998445;28;20026;-66
2023/11/14 02:01:15;;;;;;;2.88;2.67;;;;;;;;;;4998264;28;20037;-65
2023/11/14 02:03:41;;;;;;;2.40;2.20;;;;;;;;;;4998322;28;20049;-65
2023/11/14 02:06:08;;;;;;;2.00;1.90;;;;;;;;;;5016112;28;20030;-64
2023/11/14 02:08:34;;;;;;;2.25;2.15;;;;;;;;;;4998235;28;20029;-64
2023/11/14 02:11:00;;;;;;;3.80;2.13;;;;;;;;;;5031034;28;20033;-64
2023/11/14 02:13:27;;;;;;;2.17;1.80;;;;;;;;;;4998175;28;20030;-67
2023/11/14 02:15:52;;;;;;;2.25;2.00;;;;;;;;;;4998125;28;20038;-66
2023/11/14 02:18:21;;;;;;;2.40;2.20;;;;;;;;;;5015680;28;20106;-66
2023/11/14 02:20:46;;;;;;;1.73;1.63;;;;;;;;;;5015846;28;20061;-63
2023/11/14 02:23:15;;;;;;;1.70;1.60;;;;;;;;;;5016102;28;20442;-63
2023/11/14 02:25:41;;;;;;;2.42;1.45;;;;;;;;;;5015710;28;20389;-63
2023/11/14 02:28:07;;;;;;;2.10;1.98;;;;;;;;;;4997895;28;20050;-63
2023/11/14 02:30:33;;;;;;;2.50;1.90;;;;;;;;;;4998679;28;20030;-63
2023/11/14 02:32:58;;;;;;;1.88;1.65;;;;;;;;;;5015409;28;20033;-64
2023/11/14 02:35:24;;;;;;;1.55;1.45;;;;;;;;;;5015621;28;20061;-65
2023/11/14 02:37:49;;;;;;;1.52;1.40;;;;;;;;;;5015317;28;20084;-65
2023/11/14 02:40:16;;;;;;;1.15;1.10;;;;;;;;;;4997575;28;20033;-65
2023/11/14 02:42:42;;;;;;;1.40;1.30;;;;;;;;;;5015210;28;20109;-63
2023/11/14 02:45:08;;;;;;;1.23;1.13;;;;;;;;;;4997613;28;20113;-63
2023/11/14 02:47:34;;;;;;;1.20;1.10;;;;;;;;;;4997544;28;20053;-64
2023/11/14 02:50:08;;;;;;;1.38;1.27;;;;;;;;;;5015658;28;20466;-65
2023/11/14 02:52:35;;;;;;;1.40;1.30;;;;;;;;;;5015311;28;20382;-65
2023/11/14 02:55:01;;;;;;;1.00;1.00;;;;;;;;;;4997387;28;20065;-64
2023/11/14 02:57:26;;;;;;;1.27;1.17;;;;;;;;;;4997326;28;20030;-64
2023/11/14 02:59:52;;;;;;;1.20;1.10;;;;;;;;;;5014826;28;20034;-64
2023/11/14 03:02:18;;;;;;;1.10;0.95;;;;;;;;;;5014854;28;20485;-64
2023/11/14 03:04:43;;;;;;;1.35;1.02;;;;;;;;;;4997186;28;20022;-64
2023/11/14 03:07:08;;;;;;;1.52;1.30;;;;;;;;;;5015040;28;20113;-66
2023/11/14 03:09:34;;;;;;;1.52;1.40;;;;;;;;;;4997070;28;20041;-67
2023/11/14 03:12:00;;;;;;;1.20;1.10;;;;;;;;;;4997110;28;20044;-67
2023/11/14 03:14:26;;;;;;;1.83;1.05;;;;;;;;;;5014910;28;20030;-67
2023/11/14 03:16:51;;;;;;;1.85;1.50;;;;;;;;;;5014818;28;20029;-67
2023/11/14 03:19:16;;;;;;;1.10;1.10;;;;;;;;;;5014266;28;20026;-66
2023/11/14 03:21:42;;;;;;;1.40;1.30;;;;;;;;;;5014493;28;20496;-66
2023/11/14 03:24:08;;;;;;;1.85;1.23;;;;;;;;;;5014484;28;20088;-66
2023/11/14 03:26:34;;;;;;;2.00;1.25;;;;;;;;;;5029474;28;20022;-65
2023/11/14 03:29:00;;;;;;;1.45;1.35;;;;;;;;;;5014691;28;20150;-65
2023/11/14 03:31:25;;;;;;;1.63;1.52;;;;;;;;;;4980628;28;20116;-65
2023/11/14 03:33:51;;;;;;;2.08;1.38;;;;;;;;;;5014320;28;20030;-65
2023/11/14 03:36:42;;;;;;;2.28;1.63;;;;;;;;;;5019513;23;20056;-65
2023/11/14 03:39:10;;;;;;;1.50;1.38;;;;;;;;;;4997553;23;20066;-66
2023/11/14 03:41:35;;;;;;;1.33;1.30;;;;;;;;;;4972660;23;20058;-62
2023/11/14 03:44:01;;;;;;;1.05;1.02;;;;;;;;;;5049875;23;20475;-62
2023/11/14 03:46:26;;;;;;;1.85;1.15;;;;;;;;;;5016195;28;20523;-62
2023/11/14 03:48:52;;;;;;;1.48;1.38;;;;;;;;;;5034074;28;20029;-60
2023/11/14 03:51:17;;;;;;;1.42;1.33;;;;;;;;;;5033854;28;20053;-62
2023/11/14 03:53:44;;;;;;;1.05;1.05;;;;;;;;;;5033761;28;20048;-62
2023/11/14 03:56:11;;;;;;;1.38;1.27;;;;;;;;;;5016001;28;20405;-61
2023/11/14 03:58:37;;;;;;;1.52;1.30;;;;;;;;;;5033754;28;20033;-62
2023/11/14 04:01:02;;;;;;;1.00;1.00;;;;;;;;;;5016229;28;20033;-62
2023/11/14 04:03:28;;;;;;;2.03;1.48;;;;;;;;;;4996369;28;20033;-61
2023/11/14 04:05:54;;;;;;;1.38;1.23;;;;;;;;;;5048454;28;20033;-61
2023/11/14 04:08:20;;;;;;;1.45;1.35;;;;;;;;;;5033620;28;20541;-62
2023/11/14 04:10:45;;;;;;;1.55;1.40;;;;;;;;;;5015927;28;20108;-61
2023/11/14 04:13:11;;;;;;;1.50;1.40;;;;;;;;;;5015867;28;20475;-62
2023/11/14 04:15:36;;;;;;;1.52;1.42;;;;;;;;;;5033842;28;20041;-61
2023/11/14 04:18:02;;;;;;;1.70;1.60;;;;;;;;;;5033533;28;20029;-62
2023/11/14 04:20:27;;;;;;;1.10;1.10;;;;;;;;;;5016135;28;20073;-61
2023/11/14 04:22:53;;;;;;;1.73;1.63;;;;;;;;;;5015799;28;20033;-62
2023/11/14 04:25:18;;;;;;;1.08;0.98;;;;;;;;;;5033477;28;20022;-62
2023/11/14 04:27:43;;;;;;;1.40;1.30;;;;;;;;;;5033377;28;20029;-63
2023/11/14 04:30:10;;;;;;;1.35;1.23;;;;;;;;;;5016532;28;20028;-63
2023/11/14 04:32:35;;;;;;;1.58;1.23;;;;;;;;;;5019717;28;20481;-63
2023/11/14 04:35:01;;;;;;;1.55;1.42;;;;;;;;;;5037409;28;20036;-64
2023/11/14 04:37:27;;;;;;;1.50;1.40;;;;;;;;;;5037277;28;20086;-64
2023/11/14 04:39:53;;;;;;;1.75;1.13;;;;;;;;;;5019463;28;20033;-64
2023/11/14 04:42:18;;;;;;;2.15;1.50;;;;;;;;;;5036791;28;20033;-61
2023/11/14 04:44:44;;;;;;;1.23;1.13;;;;;;;;;;5019478;28;20036;-62
2023/11/14 04:47:10;;;;;;;1.38;1.27;;;;;;;;;;5019755;28;20036;-61
2023/11/14 04:49:36;;;;;;;1.33;1.23;;;;;;;;;;5020325;28;20035;-61
2023/11/14 04:52:02;;;;;;;1.40;1.30;;;;;;;;;;5036877;28;20037;-61
2023/11/14 04:54:28;;;;;;;1.48;1.38;;;;;;;;;;5019740;28;20041;-61
2023/11/14 04:56:54;;;;;;;1.27;1.17;;;;;;;;;;5019103;28;20053;-61
2023/11/14 04:59:19;;;;;;;1.58;1.48;;;;;;;;;;5036915;28;20358;-62
2023/11/14 05:01:45;;;;;;;1.92;1.10;;;;;;;;;;5035723;28;20018;-60
2023/11/14 05:04:11;;;;;;;1.52;1.42;;;;;;;;;;5018057;28;20041;-60
2023/11/14 05:06:36;;;;;;;2.63;1.38;;;;;;;;;;5018120;28;20450;-61
2023/11/14 05:09:03;;;;;;;2.40;2.20;;;;;;;;;;5035996;28;20028;-61
2023/11/14 05:11:29;;;;;;;1.73;1.63;;;;;;;;;;5035168;28;20045;-61
2023/11/14 05:13:54;;;;;;;1.98;1.60;;;;;;;;;;5017976;28;20033;-60
2023/11/14 05:16:20;;;;;;;1.90;1.80;;;;;;;;;;5018364;28;20013;-65
2023/11/14 05:18:45;;;;;;;2.40;2.17;;;;;;;;;;5018893;28;20041;-59
2023/11/14 05:21:10;;;;;;;4.43;2.05;;;;;;;;;;5036267;28;20055;-62
2023/11/14 05:23:36;;;;;;;4.88;2.08;;;;;;;;;;5036346;28;20108;-62
2023/11/14 05:26:02;;;;;;;3.05;2.65;;;;;;;;;;5036895;28;20021;-62
2023/11/14 05:28:27;;;;;;;3.40;2.83;;;;;;;;;;5036981;28;20017;-62
2023/11/14 05:30:52;;;;;;;4.10;2.50;;;;;;;;;;5036352;28;20369;-62
2023/11/14 05:33:18;;;;;;;4.00;2.60;;;;;;;;;;5036339;28;20492;-62
2023/11/14 05:35:43;;;;;;;4.15;2.72;;;;;;;;;;5035847;28;20039;-60
2023/11/14 05:38:09;;;;;;;4.97;3.45;;;;;;;;;;5036717;28;20039;-62
2023/11/14 05:40:34;;;;;;;8.20;3.35;;;;;;;;;;5018173;28;20037;-62
2023/11/14 05:43:02;;;;;;;4.57;3.35;;;;;;;;;;5036142;28;20076;-61
2023/11/14 05:45:28;;;;;;;5.22;3.50;;;;;;;;;;5036115;28;20126;-62
2023/11/14 05:47:53;;;;;;;8.07;3.47;;;;;;;;;;5036368;28;20029;-62
2023/11/14 05:50:18;;;;;;;6.07;3.47;;;;;;;;;;5018212;28;20130;-62
2023/11/14 05:52:44;;;;;;;7.10;3.95;;;;;;;;;;5036544;28;20033;-62
2023/11/14 05:55:09;;;;;;;7.88;4.10;;;;;;;;;;5035579;28;20040;-62
2023/11/14 05:57:34;;;;;;;5.25;3.50;;;;;;;;;;5036084;28;20060;-62
2023/11/14 06:00:00;;;;;;;4.80;3.88;;;;;;;;;;5036295;28;20120;-61
2023/11/14 06:02:25;;;;;;;5.80;3.60;;;;;;;;;;5035660;28;20030;-62
2023/11/14 06:04:51;;;;;;;7.55;4.28;;;;;;;;;;5036141;28;20120;-62
2023/11/14 06:07:17;;;;;;;6.88;4.15;;;;;;;;;;5018016;28;20052;-61
2023/11/14 06:09:43;;;;;;;7.05;3.83;;;;;;;;;;5035794;28;20037;-62
2023/11/14 06:12:10;;;;;;;6.93;4.40;;;;;;;;;;5018493;28;20419;-62
2023/11/14 06:14:35;;;;;;;5.93;3.47;;;;;;;;;;5035545;28;20495;-62
2023/11/14 06:17:00;;;;;;;4.93;3.72;;;;;;;;;;5018183;28;20034;-63
2023/11/14 06:19:28;;;;;;;10.10;5.45;;;;;;;;;;5017667;28;20053;-64
2023/11/14 06:21:53;;;;;;;8.00;5.55;;;;;;;;;;5017644;28;20423;-63
2023/11/14 06:24:19;;;;;;;8.63;5.25;;;;;;;;;;5035397;28;20026;-63
2023/11/14 06:26:44;;;;;;;7.10;4.75;;;;;;;;;;5035256;28;20025;-63
2023/11/14 06:29:09;;;;;;;4.70;3.58;;;;;;;;;;5035315;28;20071;-63
2023/11/14 06:31:35;;;;;;;5.57;3.40;;;;;;;;;;5035819;28;20449;-63
2023/11/14 06:34:01;;;;;;;5.78;3.38;;;;;;;;;;5035478;28;20041;-63
2023/11/14 06:36:26;;;;;;;5.60;3.25;;;;;;;;;;5035179;28;20033;-62
2023/11/14 06:38:51;;;;;;;7.00;3.35;;;;;;;;;;5035133;28;20122;-63
2023/11/14 06:41:17;;;;;;;3.53;2.67;;;;;;;;;;5035020;28;20504;-62
2023/11/14 06:43:42;;;;;;;4.47;3.35;;;;;;;;;;5004758;28;20374;-62
2023/11/14 06:46:08;;;;;;;3.33;3.03;;;;;;;;;;5015232;28;20054;-63
2023/11/14 06:48:34;;;;;;;6.28;3.63;;;;;;;;;;5015201;28;20469;-62
2023/11/14 06:50:59;;;;;;;5.88;3.85;;;;;;;;;;5015079;28;20030;-62
2023/11/14 06:53:24;;;;;;;6.80;4.63;;;;;;;;;;5014296;28;20088;-62
2023/11/14 06:55:50;;;;;;;4.88;4.00;;;;;;;;;;5015549;28;20081;-63
2023/11/14 06:58:15;;;;;;;5.25;4.15;;;;;;;;;;5015030;28;20045;-62
2023/11/14 07:00:41;;;;;;;4.93;3.17;;;;;;;;;;5014866;28;20393;-63
2023/11/14 07:03:08;;;;;;;2.70;2.38;;;;;;;;;;5014899;28;20377;-63
2023/11/14 07:05:34;;;;;;;3.70;2.80;;;;;;;;;;5015136;28;20014;-63
2023/11/14 07:08:00;;;;;;;4.25;2.60;;;;;;;;;;5014776;28;20025;-63
2023/11/14 07:10:25;;;;;;;2.83;2.63;;;;;;;;;;5014808;28;20359;-63
2023/11/14 07:12:51;;;;;;;3.13;2.80;;;;;;;;;;5014981;28;20041;-63
2023/11/14 07:15:20;;;;;;;3.10;2.80;;;;;;;;;;5015013;28;20022;-63
2023/11/14 07:17:46;;;;;;;3.80;2.90;;;;;;;;;;5014925;28;20088;-63
2023/11/14 07:20:12;;;;;;;2.85;2.33;;;;;;;;;;5014516;28;20105;-62
2023/11/14 07:22:40;;;;;;;3.13;2.83;;;;;;;;;;5014569;28;20026;-63
2023/11/14 07:25:07;;;;;;;4.03;2.78;;;;;;;;;;5014788;28;20045;-63
2023/11/14 07:27:32;;;;;;;2.90;2.17;;;;;;;;;;5014986;28;20053;-62
2023/11/14 07:29:57;;;;;;;3.15;2.47;;;;;;;;;;5014431;28;20509;-62
2023/11/14 07:32:23;;;;;;;4.13;2.85;;;;;;;;;;5014606;28;20034;-62
2023/11/14 07:34:48;;;;;;;3.03;2.67;;;;;;;;;;5014613;28;20021;-62
2023/11/14 07:37:13;;;;;;;4.40;2.30;;;;;;;;;;5014308;28;20084;-62
2023/11/14 07:39:38;;;;;;;3.45;2.47;;;;;;;;;;5014710;28;20045;-63
2023/11/14 07:42:04;;;;;;;4.80;2.70;;;;;;;;;;4996806;28;20026;-62
2023/11/14 07:44:30;;;;;;;2.42;1.90;;;;;;;;;;5006729;28;20397;-62
2023/11/14 07:46:55;;;;;;;4.70;2.75;;;;;;;;;;5033399;28;20026;-62
2023/11/14 07:49:21;;;;;;;3.75;2.60;;;;;;;;;;5016157;28;20431;-62
2023/11/14 07:51:46;;;;;;;3.95;2.45;;;;;;;;;;5034100;28;20040;-62
2023/11/14 07:54:11;;;;;;;4.40;2.22;;;;;;;;;;5016441;28;20017;-62
2023/11/14 07:56:43;;;;;;;3.65;1.88;;;;;;;;;;5034343;28;20040;-63
2023/11/14 07:59:12;;;;;;;2.55;1.95;;;;;;;;;;5034289;28;20076;-62
2023/11/14 08:01:38;;;;;;;3.67;1.92;;;;;;;;;;5033929;28;20072;-62
2023/11/14 08:04:05;;;;;;;3.65;2.20;;;;;;;;;;5034090;28;20032;-63
2023/11/14 08:06:31;;;;;;;3.20;1.90;;;;;;;;;;5015943;28;20048;-62
2023/11/14 08:08:56;;;;;;;4.25;2.20;;;;;;;;;;5033650;28;20464;-62
2023/11/14 08:11:21;;;;;;;4.00;2.88;;;;;;;;;;5033858;28;20033;-62
2023/11/14 08:13:47;;;;;;;3.00;2.40;;;;;;;;;;5033858;28;20037;-62
2023/11/14 08:16:13;;;;;;;3.75;2.38;;;;;;;;;;5015858;28;20021;-62
2023/11/14 08:18:38;;;;;;;5.63;2.83;;;;;;;;;;5033517;28;20488;-62
2023/11/14 08:21:03;;;;;;;2.92;1.98;;;;;;;;;;5033457;28;20443;-63
2023/11/14 08:23:29;;;;;;;3.35;2.13;;;;;;;;;;5033467;28;20389;-62
2023/11/14 08:25:55;;;;;;;4.32;2.85;;;;;;;;;;5034017;28;20030;-62
2023/11/14 08:28:20;;;;;;;3.15;1.98;;;;;;;;;;5015851;28;20080;-62
2023/11/14 08:30:46;;;;;;;3.15;1.73;;;;;;;;;;5015831;28;20025;-62
2023/11/14 08:33:11;;;;;;;2.42;1.90;;;;;;;;;;5033378;28;20076;-62
2023/11/14 08:35:37;;;;;;;1.80;1.50;;;;;;;;;;5033401;28;20049;-63
2023/11/14 08:38:02;;;;;;;6.07;1.75;;;;;;;;;;5015553;28;20033;-62
2023/11/14 08:40:28;;;;;;;3.63;1.90;;;;;;;;;;5033275;28;20445;-62
2023/11/14 08:42:54;;;;;;;2.95;1.83;;;;;;;;;;5015417;28;20030;-62
2023/11/14 08:45:19;;;;;;;4.47;1.98;;;;;;;;;;5033558;28;20087;-62
2023/11/14 08:47:45;;;;;;;2.20;1.55;;;;;;;;;;5015543;28;20060;-62
2023/11/14 08:50:12;;;;;;;4.00;1.30;;;;;;;;;;5015881;28;20469;-62
2023/11/14 08:52:38;;;;;;;5.65;1.75;;;;;;;;;;5031042;23;20069;-63
2023/11/14 08:55:04;;;;;;;2.88;1.75;;;;;;;;;;5005942;23;20066;-68
2023/11/14 08:57:29;;;;;;;3.10;1.45;;;;;;;;;;4993870;28;20026;-62
2023/11/14 08:59:55;;;;;;;3.15;1.73;;;;;;;;;;4993751;28;20492;-62
2023/11/14 09:02:21;;;;;;;1.88;1.63;;;;;;;;;;4993815;28;20549;-62
2023/11/14 09:04:46;;;;;;;1.85;1.55;;;;;;;;;;4993784;28;20109;-62
2023/11/14 09:07:12;;;;;;;2.83;1.85;;;;;;;;;;4993786;28;20430;-62
2023/11/14 09:09:38;;;;;;;1.85;1.48;;;;;;;;;;4976411;28;20026;-62
2023/11/14 09:12:04;;;;;;;1.75;1.52;;;;;;;;;;4976268;28;20031;-62
2023/11/14 09:14:30;;;;;;;5.50;2.30;;;;;;;;;;4993970;28;20027;-62
2023/11/14 09:16:56;;;;;;;2.03;1.48;;;;;;;;;;4995562;28;20018;-62
2023/11/14 09:19:22;;;;;;;2.20;1.48;;;;;;;;;;4997221;28;20548;-62
2023/11/14 09:21:48;;;;;;;2.55;1.42;;;;;;;;;;4997032;28;20030;-62
2023/11/14 09:24:13;;;;;;;1.65;1.48;;;;;;;;;;4997106;28;20386;-62
2023/11/14 09:26:40;;;;;;;5.55;1.83;;;;;;;;;;4979762;28;20478;-62
2023/11/14 09:29:05;;;;;;;3.13;2.17;;;;;;;;;;4997137;28;20025;-62
2023/11/14 09:31:31;;;;;;;3.58;1.85;;;;;;;;;;4997027;28;20034;-62
2023/11/14 09:33:57;;;;;;;3.20;1.90;;;;;;;;;;4997038;28;20038;-62
2023/11/14 09:36:34;;;;;;;4.57;2.30;;;;;;;;;;4996921;28;20521;-62
2023/11/14 09:38:59;;;;;;;3.28;1.75;;;;;;;;;;4996953;28;20066;-62
2023/11/14 09:41:25;;;;;;;1.88;1.67;;;;;;;;;;4996885;28;20128;-62
2023/11/14 09:43:50;;;;;;;1.80;1.38;;;;;;;;;;4996916;28;20030;-62
2023/11/14 09:46:16;;;;;;;1.65;1.15;;;;;;;;;;4996712;28;20034;-62
2023/11/14 09:48:43;;;;;;;2.13;1.30;;;;;;;;;;4979405;28;20026;-62
2023/11/14 09:51:09;;;;;;;2.80;1.95;;;;;;;;;;4979309;28;20081;-62
2023/11/14 09:53:35;;;;;;;2.70;1.48;;;;;;;;;;4996550;28;20077;-62
2023/11/14 09:56:00;;;;;;;2.70;1.70;;;;;;;;;;4996665;28;20031;-62
2023/11/14 09:58:26;;;;;;;3.33;1.75;;;;;;;;;;4996415;28;20041;-62
2023/11/14 10:00:51;;;;;;;2.42;1.42;;;;;;;;;;4996395;28;20042;-62
2023/11/14 10:03:17;;;;;;;2.47;1.20;;;;;;;;;;4996400;28;20041;-62
2023/11/14 10:05:43;;;;;;;2.85;1.80;;;;;;;;;;4978896;28;20037;-62
2023/11/14 10:08:11;;;;;;;2.05;1.60;;;;;;;;;;4978916;28;20023;-62
2023/11/14 10:10:37;;;;;;;5.93;2.65;;;;;;;;;;4996364;28;20030;-62
2023/11/14 10:13:03;;;;;;;5.22;2.80;;;;;;;;;;4996570;28;20046;-62
2023/11/14 10:15:31;;;;;;;6.53;2.78;;;;;;;;;;4978732;28;20026;-62
2023/11/14 10:17:57;;;;;;;2.42;1.73;;;;;;;;;;4996133;28;20466;-62
2023/11/14 10:20:24;;;;;;;0.75;0.65;;;;;;;;;;4996035;28;20114;-62
2023/11/14 10:22:54;;;;;;;2.35;1.73;;;;;;;;;;4978548;28;20545;-62
2023/11/14 10:25:23;;;;;;;4.90;2.15;;;;;;;;;;4996087;28;20034;-62
2023/11/14 10:27:54;;;;;;;2.45;1.15;;;;;;;;;;4977425;28;20039;-62
2023/11/14 10:30:19;;;;;;;3.88;1.85;;;;;;;;;;4978569;28;20042;-62
2023/11/14 10:32:54;;;;;;;2.05;1.50;;;;;;;;;;4995916;28;20034;-62
2023/11/14 10:35:19;;;;;;;0.63;0.40;;;;;;;;;;4978588;28;20382;-62
2023/11/14 10:37:46;;;;;;;2.97;1.58;;;;;;;;;;4995849;28;20034;-62
2023/11/14 10:40:11;;;;;;;4.30;1.92;;;;;;;;;;4995807;28;20030;-62
2023/11/14 10:42:37;;;;;;;1.23;1.10;;;;;;;;;;4978226;28;20382;-62
2023/11/14 10:45:10;;;;;;;1.05;0.85;;;;;;;;;;4978169;28;20072;-62
2023/11/14 10:47:48;;;;;;;3.72;1.00;;;;;;;;;;4995664;28;20057;-62
2023/11/14 11:27:25;;;;;;;3.20;1.58;;;;;;;;;;4991949;28;20093;-60
2023/11/14 11:30:04;;;;;;;3.95;1.42;;;;;;;;;;4994747;28;20026;-60
2023/11/14 11:32:39;;;;;;;2.47;1.15;;;;;;;;;;4995012;28;20462;-60
2023/11/14 11:35:23;;;;;;;3.35;1.40;;;;;;;;;;5018198;23;20062;-60
2023/11/14 11:38:11;;;;;;;2.42;1.08;;;;;;;;;;5027987;23;20141;-59
2023/11/14 11:44:00;;;;;;;2.40;1.55;;;;;;;;;;5019689;23;20113;-55
2023/11/14 11:46:32;;;;;;;4.15;1.88;;;;;;;;;;4994683;28;20038;-55
2023/11/14 11:48:57;;;;;;;6.82;2.17;;;;;;;;;;4977116;28;20433;-54
2023/11/14 11:51:25;;;;;;;2.25;1.33;;;;;;;;;;4994422;28;20030;-54
2023/11/14 11:53:50;;;;;;;3.75;1.60;;;;;;;;;;4994426;28;20042;-54
2023/11/14 11:56:34;;;;;;;3.97;1.25;;;;;;;;;;4994368;28;20432;-54
2023/11/14 11:58:59;;;;;;;2.92;1.33;;;;;;;;;;4994411;28;20037;-54
2023/11/14 12:01:25;;;;;;;1.85;1.15;;;;;;;;;;4994325;28;20034;-54
2023/11/14 12:03:51;;;;;;;4.50;1.50;;;;;;;;;;4994550;28;20117;-54
2023/11/14 12:06:17;;;;;;;6.95;2.53;;;;;;;;;;4994285;28;20114;-54
2023/11/14 12:08:43;;;;;;;2.58;1.38;;;;;;;;;;4994182;28;20441;-54
2023/11/14 12:11:14;;;;;;;2.65;1.35;;;;;;;;;;4994188;28;20030;-54
2023/11/14 12:13:45;;;;;;;4.78;1.60;;;;;;;;;;4994537;28;20030;-55
2023/11/14 12:16:11;;;;;;;3.28;1.50;;;;;;;;;;4994194;28;20065;-54
2023/11/14 12:18:37;;;;;;;3.33;1.38;;;;;;;;;;4994127;28;20443;-54
2023/11/14 12:21:03;;;;;;;4.95;2.03;;;;;;;;;;4994048;28;20393;-54
2023/11/14 12:23:28;;;;;;;1.73;1.35;;;;;;;;;;4994038;28;20031;-55
2023/11/14 12:25:54;;;;;;;2.90;1.33;;;;;;;;;;4994037;28;20030;-54
2023/11/14 12:28:19;;;;;;;3.22;1.63;;;;;;;;;;4994028;28;20015;-54
2023/11/14 12:31:14;;;;;;;2.92;1.60;;;;;;;;;;4994022;28;20022;-54
2023/11/14 12:33:44;;;;;;;3.33;1.58;;;;;;;;;;4981332;28;20049;-54
2023/11/14 12:36:19;;;;;;;3.28;2.17;;;;;;;;;;4994099;28;20136;-54
2023/11/14 12:38:45;;;;;;;1.10;0.93;;;;;;;;;;4994001;28;20038;-54
2023/11/14 12:41:14;;;;;;;4.35;1.92;;;;;;;;;;4993801;28;20524;-55
2023/11/14 12:43:40;;;;;;;4.13;1.70;;;;;;;;;;4972311;28;20122;-55
2023/11/14 12:46:05;;;;;;;5.53;2.13;;;;;;;;;;4974503;28;20443;-55
2023/11/14 12:48:31;;;;;;;6.20;2.00;;;;;;;;;;4974465;28;20447;-55
2023/11/14 12:50:56;;;;;;;3.55;1.02;;;;;;;;;;4974882;28;20037;-55
2023/11/14 12:53:28;;;;;;;3.47;1.45;;;;;;;;;;4978166;28;20545;-55
2023/11/14 12:55:55;;;;;;;2.88;1.65;;;;;;;;;;4978106;28;20039;-55
2023/11/14 12:58:20;;;;;;;4.90;1.88;;;;;;;;;;4978148;28;20062;-55
2023/11/14 13:00:45;;;;;;;3.17;1.58;;;;;;;;;;4978062;28;20066;-55
2023/11/14 13:03:11;;;;;;;4.13;1.50;;;;;;;;;;4978018;28;20042;-55
2023/11/14 13:05:37;;;;;;;5.03;1.85;;;;;;;;;;4977914;28;20019;-55
2023/11/14 13:08:02;;;;;;;3.65;1.60;;;;;;;;;;4960731;28;20448;-55
2023/11/14 13:10:27;;;;;;;2.53;1.40;;;;;;;;;;4977911;28;20452;-55
2023/11/14 13:12:53;;;;;;;5.50;1.67;;;;;;;;;;4960708;28;20034;-56
2023/11/14 13:15:18;;;;;;;1.58;0.60;;;;;;;;;;4977901;28;20062;-58
2023/11/14 13:17:43;;;;;;;3.88;1.27;;;;;;;;;;4977861;28;20038;-58
2023/11/14 13:20:11;;;;;;;3.80;1.55;;;;;;;;;;4959361;28;20031;-58
2023/11/14 13:22:37;;;;;;;5.55;1.80;;;;;;;;;;4976644;28;20038;-58
2023/11/14 13:25:02;;;;;;;3.25;1.60;;;;;;;;;;4976733;28;20035;-58
2023/11/14 13:27:28;;;;;;;4.72;1.45;;;;;;;;;;4976646;28;20054;-58
2023/11/14 13:29:53;;;;;;;3.65;1.70;;;;;;;;;;4976884;28;20062;-58
2023/11/14 13:32:18;;;;;;;3.75;1.58;;;;;;;;;;4976614;28;20536;-58
2023/11/14 13:34:44;;;;;;;3.10;2.10;;;;;;;;;;4959208;28;20019;-58
2023/11/14 13:37:09;;;;;;;3.33;1.70;;;;;;;;;;4976349;28;20027;-58
2023/11/14 13:39:34;;;;;;;5.47;2.63;;;;;;;;;;4976479;28;20570;-56
2023/11/14 13:42:00;;;;;;;5.97;2.25;;;;;;;;;;4977006;28;20038;-57
2023/11/14 13:44:25;;;;;;;3.67;1.73;;;;;;;;;;4976935;28;20114;-57
2023/11/14 13:46:55;;;;;;;3.20;1.75;;;;;;;;;;4943777;28;20035;-57
2023/11/14 13:49:20;;;;;;;4.47;1.67;;;;;;;;;;4976936;28;20031;-57
2023/11/14 13:51:45;;;;;;;4.65;1.95;;;;;;;;;;4976920;28;20170;-57
2023/11/14 13:54:16;;;;;;;4.68;1.95;;;;;;;;;;4977050;28;20038;-61
2023/11/14 13:56:42;;;;;;;5.32;2.00;;;;;;;;;;4943558;28;20046;-68
2023/11/14 13:59:08;;;;;;;3.78;2.00;;;;;;;;;;4976782;28;20023;-60
2023/11/14 14:01:34;;;;;;;5.07;1.83;;;;;;;;;;4960097;28;20121;-61
2023/11/14 14:04:00;;;;;;;7.22;3.30;;;;;;;;;;4959025;28;20027;-61
2023/11/14 14:06:26;;;;;;;3.92;2.40;;;;;;;;;;4976016;28;20034;-61
2023/11/14 14:08:52;;;;;;;7.18;3.28;;;;;;;;;;4977325;28;20356;-61
2023/11/14 14:11:18;;;;;;;3.47;2.10;;;;;;;;;;4977243;28;20019;-61
2023/11/14 14:13:43;;;;;;;5.25;2.17;;;;;;;;;;4976751;28;20635;-60
2023/11/14 14:16:09;;;;;;;3.78;1.58;;;;;;;;;;4976719;28;20121;-60
2023/11/14 14:18:35;;;;;;;4.70;2.03;;;;;;;;;;4976681;28;20027;-62
2023/11/14 14:21:03;;;;;;;4.88;2.10;;;;;;;;;;4976593;28;20081;-62
2023/11/14 14:23:29;;;;;;;5.35;2.08;;;;;;;;;;4976707;28;20470;-62
2023/11/14 14:25:55;;;;;;;5.88;2.15;;;;;;;;;;4976778;28;20390;-62
2023/11/14 14:28:22;;;;;;;3.92;2.25;;;;;;;;;;4976569;28;20034;-62
2023/11/14 14:30:49;;;;;;;5.43;2.75;;;;;;;;;;4976530;28;20050;-62
2023/11/14 14:33:14;;;;;;;5.95;2.55;;;;;;;;;;4976434;28;20106;-62
2023/11/14 14:35:40;;;;;;;4.03;2.75;;;;;;;;;;4959042;28;20244;-62
2023/11/14 14:38:05;;;;;;;6.55;3.17;;;;;;;;;;4976373;28;20038;-62
2023/11/14 14:40:31;;;;;;;5.25;2.25;;;;;;;;;;4958918;28;20037;-62
2023/11/14 14:42:56;;;;;;;6.43;2.85;;;;;;;;;;4976224;28;20047;-62
2023/11/14 14:45:21;;;;;;;5.50;2.63;;;;;;;;;;4958668;28;20406;-62
2023/11/14 14:47:47;;;;;;;5.15;1.98;;;;;;;;;;4976091;28;20031;-62
2023/11/14 14:50:12;;;;;;;8.77;3.28;;;;;;;;;;4958950;28;20465;-62
2023/11/14 14:52:39;;;;;;;5.90;2.65;;;;;;;;;;4976098;28;20043;-62
2023/11/14 14:55:05;;;;;;;6.38;2.88;;;;;;;;;;4975367;28;20035;-62
2023/11/14 14:57:30;;;;;;;6.95;2.88;;;;;;;;;;4974082;28;20037;-62
2023/11/14 14:59:57;;;;;;;4.55;2.20;;;;;;;;;;4973928;28;20089;-62
2023/11/14 15:02:25;;;;;;;5.75;3.25;;;;;;;;;;4974018;28;20026;-62
2023/11/14 15:04:50;;;;;;;5.45;2.65;;;;;;;;;;4956597;28;20430;-62
2023/11/14 15:07:16;;;;;;;6.57;2.85;;;;;;;;;;4956785;28;20029;-62
2023/11/14 15:09:42;;;;;;;5.88;2.47;;;;;;;;;;4956883;28;20037;-62
2023/11/14 15:12:10;;;;;;;9.18;3.25;;;;;;;;;;4975440;28;20045;-62
2023/11/14 15:14:36;;;;;;;5.05;2.35;;;;;;;;;;4975014;28;20073;-62
2023/11/14 15:17:02;;;;;;;5.00;2.33;;;;;;;;;;4975587;28;20399;-62
2023/11/14 15:19:28;;;;;;;6.70;2.67;;;;;;;;;;4975805;28;20023;-62